Observations for BARI PALESE MACCHIE, Italy (LIBD)

LIBD 200720Z 29009KT 7000 FEW015 SCT025 BKN040 09/08 Q1023  
LIBD 200650Z 29007KT 7000 FEW010 SCT025 BKN040 09/08 Q1023 R25/210095   
LIBD 200620Z 29007KT 7000 -RA FEW010 BKN040 09/08 Q1022 R25/210095  
LIBD 200550Z 28005KT 7000 FEW010 BKN040 09/08 Q1022 RERA 25/210095  
LIBD 200520Z 29007KT 5000 SHRA SCT010 BKN040 09/08 Q1022 25/210095  
LIBD 200450Z 29007KT 9999 RA BKN040 09/08 Q1021 
LIBD 200420Z 30007KT 9999 RA BKN040 09/09 Q1021 
LIBD 200320Z 28006KT CAVOK 10/09 Q1021  
LIBD 200250Z 30007KT CAVOK 10/09 Q1021  
LIBD 200220Z 31006KT CAVOK 10/09 Q1021  
LIBD 200150Z 30005KT CAVOK 10/09 Q1021  
LIBD 200120Z 29003KT CAVOK 10/09 Q1021  
LIBD 200050Z 30005KT CAVOK 10/09 Q1022  
LIBD 200020Z 32004KT 9999 FEW010 SCT040 10/09 Q1021 
LIBD 192350Z 30005KT 9999 SCT040 10/09 Q1021
LIBD 192320Z 30006KT 9999 SCT045 10/09 Q1021
LIBD 192250Z 29006KT 9999 FEW015 BKN040 10/09 Q1021 
LIBD 192220Z 31007KT 9999 FEW015 BKN040 11/09 Q1021 
LIBD 192150Z 35010KT 9999 FEW015 SCT025 BKN040 12/08 Q1021  
LIBD 192120Z 01010KT 330V030 9999 SCT025 BKN040 12/06 Q1021 
LIBD 192050Z 34009KT 310V010 9999 FEW020 SCT025 BKN040 12/08 Q1021  
LIBD 192020Z 34009KT 9999 FEW015 SCT025 BKN040 12/09 Q1020  
LIBD 191950Z 34009KT 9999 FEW015 SCT020 BKN040 12/09 Q1020  
LIBD 191920Z 35008KT 9999 FEW015 SCT020 BKN040 12/08 Q1020  
LIBD 191850Z 36007KT 7000 -RA FEW015 SCT020 BKN040 12/10 Q1020  
LIBD 191820Z 36008KT 7000 -RA FEW015 SCT020 BKN040 13/10 Q1019  
LIBD 191750Z 01006KT 7000 FEW015 SCT020 BKN040 12/10 Q1019  
LIBD 191720Z 01004KT 340V040 5000 BR FEW015 SCT020 BKN040 12/11 Q1018   
LIBD 191650Z 34005KT 300V360 5000 BR FEW015 SCT020 BKN040 12/10 Q1018   
LIBD 191620Z 35005KT 320V030 5000 -RA BR FEW015 SCT020 BKN040 12/10 Q1018   
LIBD 191550Z 02006KT 5000 -RA BR FEW015 SCT020 BKN040 13/11 Q1017   
LIBD 191520Z 01006KT 9999 SCT020 BKN040 13/10 Q1017 
LIBD 191450Z 03005KT 9999 SCT020 BKN040 13/10 Q1017 
LIBD 191420Z 03007KT 9999 FEW020 BKN040 13/10 Q1017 
LIBD 191350Z 03006KT 9999 FEW020 BKN040 13/10 Q1017 
LIBD 191320Z 02007KT 9999 FEW015 BKN040 13/10 Q1017 
LIBD 191250Z 02007KT 9999 FEW015 BKN040 13/10 Q1017 
LIBD 191220Z 36006KT 9999 FEW015 BKN040 13/10 Q1017 
LIBD 191150Z 36007KT 8000 FEW012 BKN040 13/10 Q1017 
LIBD 191120Z 36008KT 330V030 8000 FEW015 BKN040 13/10 Q1017 
LIBD 191050Z 36007KT 8000 FEW025 BKN040 12/10 Q1017 
LIBD 191020Z 34005KT 310V010 8000 FEW025 BKN040 12/09 Q1018 
LIBD 190950Z 35007KT 8000 FEW025 BKN040 12/09 Q1017 
LIBD 190920Z 35005KT 330V030 8000 FEW025 BKN040 12/09 Q1017 
LIBD 190850Z 35005KT 320V030 8000 FEW025 BKN040 13/09 Q1017 
LIBD 190820Z 33003KT 290V030 8000 FEW025 BKN040 12/09 Q1017 
LIBD 190750Z 32004KT 290V350 8000 FEW020 SCT035 11/09 Q1017 
LIBD 190720Z 32006KT CAVOK 11/09 Q1017  
LIBD 190650Z 33006KT 7000 FEW015 SCT030 10/09 Q1016